sensor_id;sensor_type;location;lat;lon;timestamp;P1;durP1;ratioP1;P2;durP2;ratioP2
17686;SDS011;8962;52.538;13.266;2022-09-16T00:01:55;8.75;;;3.80;;
17686;SDS011;8962;52.538;13.266;2022-09-16T00:04:24;9.23;;;2.67;;
17686;SDS011;8962;52.538;13.266;2022-09-16T00:06:55;4.03;;;1.70;;
17686;SDS011;8962;52.538;13.266;2022-09-16T00:09:25;4.38;;;1.80;;
17686;SDS011;8962;52.538;13.266;2022-09-16T00:11:53;5.30;;;2.00;;
17686;SDS011;8962;52.538;13.266;2022-09-16T00:14:20;6.05;;;2.83;;
17686;SDS011;8962;52.538;13.266;2022-09-16T00:16:49;7.03;;;2.17;;
17686;SDS011;8962;52.538;13.266;2022-09-16T00:19:16;7.57;;;3.28;;
17686;SDS011;8962;52.538;13.266;2022-09-16T00:21:45;6.10;;;3.60;;
17686;SDS011;8962;52.538;13.266;2022-09-16T00:24:14;7.15;;;4.15;;
17686;SDS011;8962;52.538;13.266;2022-09-16T00:26:43;12.38;;;5.05;;
17686;SDS011;8962;52.538;13.266;2022-09-16T00:29:11;7.63;;;4.53;;
17686;SDS011;8962;52.538;13.266;2022-09-16T00:31:38;7.18;;;4.15;;
17686;SDS011;8962;52.538;13.266;2022-09-16T00:34:05;7.50;;;4.00;;
17686;SDS011;8962;52.538;13.266;2022-09-16T00:36:32;8.07;;;4.18;;
17686;SDS011;8962;52.538;13.266;2022-09-16T00:39:02;7.65;;;4.22;;
17686;SDS011;8962;52.538;13.266;2022-09-16T00:41:31;11.25;;;5.55;;
17686;SDS011;8962;52.538;13.266;2022-09-16T00:43:59;6.50;;;4.43;;
17686;SDS011;8962;52.538;13.266;2022-09-16T00:46:29;9.18;;;4.97;;
17686;SDS011;8962;52.538;13.266;2022-09-16T00:49:02;8.10;;;4.68;;
17686;SDS011;8962;52.538;13.266;2022-09-16T00:51:31;6.57;;;4.20;;
17686;SDS011;8962;52.538;13.266;2022-09-16T00:54:00;6.38;;;3.55;;
17686;SDS011;8962;52.538;13.266;2022-09-16T00:56:33;5.45;;;3.42;;
17686;SDS011;8962;52.538;13.266;2022-09-16T00:59:05;5.18;;;2.58;;
17686;SDS011;8962;52.538;13.266;2022-09-16T01:01:35;7.50;;;2.15;;
17686;SDS011;8962;52.538;13.266;2022-09-16T01:04:07;4.43;;;2.10;;
17686;SDS011;8962;52.538;13.266;2022-09-16T01:06:39;7.07;;;1.92;;
17686;SDS011;8962;52.538;13.266;2022-09-16T01:09:06;4.57;;;1.83;;
17686;SDS011;8962;52.538;13.266;2022-09-16T01:11:35;4.60;;;1.88;;
17686;SDS011;8962;52.538;13.266;2022-09-16T01:14:03;11.10;;;2.10;;
17686;SDS011;8962;52.538;13.266;2022-09-16T01:16:51;3.55;;;1.80;;
17686;SDS011;8962;52.538;13.266;2022-09-16T01:19:35;4.72;;;2.28;;
17686;SDS011;8962;52.538;13.266;2022-09-16T01:22:20;5.65;;;2.28;;
17686;SDS011;8962;52.538;13.266;2022-09-16T01:25:03;5.93;;;2.45;;
17686;SDS011;8962;52.538;13.266;2022-09-16T01:27:53;5.85;;;2.25;;
17686;SDS011;8962;52.538;13.266;2022-09-16T01:30:57;6.25;;;2.17;;
17686;SDS011;8962;52.538;13.266;2022-09-16T01:33:32;7.78;;;2.55;;
17686;SDS011;8962;52.538;13.266;2022-09-16T01:36:16;6.40;;;2.40;;
17686;SDS011;8962;52.538;13.266;2022-09-16T01:39:03;5.53;;;2.17;;
17686;SDS011;8962;52.538;13.266;2022-09-16T01:41:47;6.15;;;2.03;;
17686;SDS011;8962;52.538;13.266;2022-09-16T01:44:28;5.68;;;2.53;;
17686;SDS011;8962;52.538;13.266;2022-09-16T01:47:07;4.72;;;2.25;;
17686;SDS011;8962;52.538;13.266;2022-09-16T01:49:43;10.05;;;2.10;;
17686;SDS011;8962;52.538;13.266;2022-09-16T01:52:21;8.73;;;2.67;;
17686;SDS011;8962;52.538;13.266;2022-09-16T01:54:58;7.97;;;2.90;;
17686;SDS011;8962;52.538;13.266;2022-09-16T01:57:31;9.98;;;3.47;;
17686;SDS011;8962;52.538;13.266;2022-09-16T02:00:04;8.02;;;3.10;;
17686;SDS011;8962;52.538;13.266;2022-09-16T02:02:39;5.53;;;2.50;;
17686;SDS011;8962;52.538;13.266;2022-09-16T02:05:12;8.60;;;2.80;;
17686;SDS011;8962;52.538;13.266;2022-09-16T02:07:48;11.30;;;3.08;;
17686;SDS011;8962;52.538;13.266;2022-09-16T02:10:25;9.20;;;2.90;;
17686;SDS011;8962;52.538;13.266;2022-09-16T02:12:57;8.52;;;2.50;;
17686;SDS011;8962;52.538;13.266;2022-09-16T02:15:32;5.32;;;2.47;;
17686;SDS011;8962;52.538;13.266;2022-09-16T02:18:05;7.30;;;2.58;;
17686;SDS011;8962;52.538;13.266;2022-09-16T02:20:37;6.72;;;3.00;;
17686;SDS011;8962;52.538;13.266;2022-09-16T02:23:11;6.82;;;2.60;;
17686;SDS011;8962;52.538;13.266;2022-09-16T02:25:41;5.85;;;2.75;;
17686;SDS011;8962;52.538;13.266;2022-09-16T02:28:16;7.00;;;3.05;;
17686;SDS011;8962;52.538;13.266;2022-09-16T02:30:51;6.40;;;3.50;;
17686;SDS011;8962;52.538;13.266;2022-09-16T02:33:29;6.45;;;4.07;;
17686;SDS011;8962;52.538;13.266;2022-09-16T02:35:58;15.95;;;5.43;;
17686;SDS011;8962;52.538;13.266;2022-09-16T02:38:29;12.20;;;5.22;;
17686;SDS011;8962;52.538;13.266;2022-09-16T02:41:01;9.05;;;4.97;;
17686;SDS011;8962;52.538;13.266;2022-09-16T02:43:31;12.95;;;5.15;;
17686;SDS011;8962;52.538;13.266;2022-09-16T02:46:04;9.02;;;4.80;;
17686;SDS011;8962;52.538;13.266;2022-09-16T02:48:41;11.55;;;4.25;;
17686;SDS011;8962;52.538;13.266;2022-09-16T02:51:15;8.50;;;3.80;;
17686;SDS011;8962;52.538;13.266;2022-09-16T02:53:50;13.07;;;3.38;;
17686;SDS011;8962;52.538;13.266;2022-09-16T02:56:23;6.50;;;3.10;;
17686;SDS011;8962;52.538;13.266;2022-09-16T02:58:57;8.38;;;2.97;;
17686;SDS011;8962;52.538;13.266;2022-09-16T03:01:24;5.78;;;3.40;;
17686;SDS011;8962;52.538;13.266;2022-09-16T03:03:55;6.70;;;3.45;;
17686;SDS011;8962;52.538;13.266;2022-09-16T03:06:24;10.88;;;3.25;;
17686;SDS011;8962;52.538;13.266;2022-09-16T03:08:54;7.50;;;3.60;;
17686;SDS011;8962;52.538;13.266;2022-09-16T03:11:32;8.55;;;4.30;;
17686;SDS011;8962;52.538;13.266;2022-09-16T03:17:18;8.57;;;4.60;;
17686;SDS011;8962;52.538;13.266;2022-09-16T03:19:58;9.55;;;5.35;;
17686;SDS011;8962;52.538;13.266;2022-09-16T03:22:34;8.02;;;4.55;;
17686;SDS011;8962;52.538;13.266;2022-09-16T03:25:18;8.15;;;3.63;;
17686;SDS011;8962;52.538;13.266;2022-09-16T03:27:57;7.88;;;3.47;;
17686;SDS011;8962;52.538;13.266;2022-09-16T03:30:30;8.15;;;3.00;;
17686;SDS011;8962;52.538;13.266;2022-09-16T03:33:03;7.03;;;3.30;;
17686;SDS011;8962;52.538;13.266;2022-09-16T03:35:36;9.02;;;3.08;;
17686;SDS011;8962;52.538;13.266;2022-09-16T03:38:08;11.50;;;3.15;;
17686;SDS011;8962;52.538;13.266;2022-09-16T03:40:38;5.82;;;2.90;;
17686;SDS011;8962;52.538;13.266;2022-09-16T03:43:09;6.72;;;3.10;;
17686;SDS011;8962;52.538;13.266;2022-09-16T03:45:38;7.95;;;2.83;;
17686;SDS011;8962;52.538;13.266;2022-09-16T03:48:15;6.20;;;3.00;;
17686;SDS011;8962;52.538;13.266;2022-09-16T03:50:43;8.38;;;3.45;;
17686;SDS011;8962;52.538;13.266;2022-09-16T03:53:13;7.53;;;3.45;;
17686;SDS011;8962;52.538;13.266;2022-09-16T03:55:42;9.85;;;4.07;;
17686;SDS011;8962;52.538;13.266;2022-09-16T03:58:13;7.57;;;3.25;;
17686;SDS011;8962;52.538;13.266;2022-09-16T04:00:40;11.05;;;3.45;;
17686;SDS011;8962;52.538;13.266;2022-09-16T04:03:09;8.07;;;3.95;;
17686;SDS011;8962;52.538;13.266;2022-09-16T04:05:38;7.28;;;3.40;;
17686;SDS011;8962;52.538;13.266;2022-09-16T04:08:07;8.48;;;3.58;;
17686;SDS011;8962;52.538;13.266;2022-09-16T04:10:41;7.70;;;3.05;;
17686;SDS011;8962;52.538;13.266;2022-09-16T04:13:19;9.85;;;4.00;;
17686;SDS011;8962;52.538;13.266;2022-09-16T04:15:47;13.35;;;3.85;;
17686;SDS011;8962;52.538;13.266;2022-09-16T04:18:18;8.25;;;3.50;;
17686;SDS011;8962;52.538;13.266;2022-09-16T04:20:55;10.43;;;4.35;;
17686;SDS011;8962;52.538;13.266;2022-09-16T04:23:25;11.30;;;4.78;;
17686;SDS011;8962;52.538;13.266;2022-09-16T04:25:57;9.13;;;4.43;;
17686;SDS011;8962;52.538;13.266;2022-09-16T04:28:26;8.77;;;4.28;;
17686;SDS011;8962;52.538;13.266;2022-09-16T04:30:58;11.35;;;3.97;;
17686;SDS011;8962;52.538;13.266;2022-09-16T04:33:27;11.13;;;3.97;;
17686;SDS011;8962;52.538;13.266;2022-09-16T04:36:00;8.88;;;4.35;;
17686;SDS011;8962;52.538;13.266;2022-09-16T04:38:29;10.90;;;4.10;;
17686;SDS011;8962;52.538;13.266;2022-09-16T04:40:58;7.20;;;3.67;;
17686;SDS011;8962;52.538;13.266;2022-09-16T04:43:27;12.80;;;4.00;;
17686;SDS011;8962;52.538;13.266;2022-09-16T04:45:55;9.55;;;3.90;;
17686;SDS011;8962;52.538;13.266;2022-09-16T04:48:24;9.40;;;3.50;;
17686;SDS011;8962;52.538;13.266;2022-09-16T04:50:52;13.38;;;4.30;;
17686;SDS011;8962;52.538;13.266;2022-09-16T04:53:36;11.10;;;3.38;;
17686;SDS011;8962;52.538;13.266;2022-09-16T04:56:05;13.95;;;3.60;;
17686;SDS011;8962;52.538;13.266;2022-09-16T04:58:38;12.45;;;3.92;;
17686;SDS011;8962;52.538;13.266;2022-09-16T05:01:07;9.95;;;3.65;;
17686;SDS011;8962;52.538;13.266;2022-09-16T05:03:38;11.07;;;3.70;;
17686;SDS011;8962;52.538;13.266;2022-09-16T05:06:09;10.80;;;3.38;;
17686;SDS011;8962;52.538;13.266;2022-09-16T05:08:41;10.98;;;3.33;;
17686;SDS011;8962;52.538;13.266;2022-09-16T05:11:13;13.20;;;3.50;;
17686;SDS011;8962;52.538;13.266;2022-09-16T05:13:42;8.48;;;3.20;;
17686;SDS011;8962;52.538;13.266;2022-09-16T05:16:10;8.23;;;3.10;;
17686;SDS011;8962;52.538;13.266;2022-09-16T05:18:40;9.23;;;3.42;;
17686;SDS011;8962;52.538;13.266;2022-09-16T05:21:11;10.02;;;3.20;;
17686;SDS011;8962;52.538;13.266;2022-09-16T05:23:43;7.78;;;3.17;;
17686;SDS011;8962;52.538;13.266;2022-09-16T05:26:18;7.05;;;3.42;;
17686;SDS011;8962;52.538;13.266;2022-09-16T05:28:46;10.77;;;3.30;;
17686;SDS011;8962;52.538;13.266;2022-09-16T05:31:16;9.70;;;3.20;;
17686;SDS011;8962;52.538;13.266;2022-09-16T05:33:45;8.23;;;3.13;;
17686;SDS011;8962;52.538;13.266;2022-09-16T05:36:19;7.47;;;3.08;;
17686;SDS011;8962;52.538;13.266;2022-09-16T05:38:49;7.80;;;3.35;;
17686;SDS011;8962;52.538;13.266;2022-09-16T05:41:18;6.40;;;3.10;;
17686;SDS011;8962;52.538;13.266;2022-09-16T05:43:46;6.88;;;3.30;;
17686;SDS011;8962;52.538;13.266;2022-09-16T05:46:16;10.20;;;3.17;;
17686;SDS011;8962;52.538;13.266;2022-09-16T05:48:44;6.22;;;3.30;;
17686;SDS011;8962;52.538;13.266;2022-09-16T05:51:13;9.23;;;3.30;;
17686;SDS011;8962;52.538;13.266;2022-09-16T05:53:44;11.27;;;3.25;;
17686;SDS011;8962;52.538;13.266;2022-09-16T05:56:14;13.82;;;3.28;;
17686;SDS011;8962;52.538;13.266;2022-09-16T05:58:42;8.55;;;3.25;;
17686;SDS011;8962;52.538;13.266;2022-09-16T06:01:12;10.35;;;3.22;;
17686;SDS011;8962;52.538;13.266;2022-09-16T06:03:42;9.50;;;3.17;;
17686;SDS011;8962;52.538;13.266;2022-09-16T06:06:11;8.32;;;3.80;;
17686;SDS011;8962;52.538;13.266;2022-09-16T06:08:41;11.75;;;4.30;;
17686;SDS011;8962;52.538;13.266;2022-09-16T06:11:09;8.45;;;4.00;;
17686;SDS011;8962;52.538;13.266;2022-09-16T06:13:38;8.65;;;3.03;;
17686;SDS011;8962;52.538;13.266;2022-09-16T06:16:08;10.18;;;3.53;;
17686;SDS011;8962;52.538;13.266;2022-09-16T06:18:35;8.07;;;2.95;;
17686;SDS011;8962;52.538;13.266;2022-09-16T06:21:04;6.93;;;2.90;;
17686;SDS011;8962;52.538;13.266;2022-09-16T06:23:33;8.73;;;3.03;;
17686;SDS011;8962;52.538;13.266;2022-09-16T06:26:02;8.38;;;3.05;;
17686;SDS011;8962;52.538;13.266;2022-09-16T06:28:32;10.75;;;3.70;;
17686;SDS011;8962;52.538;13.266;2022-09-16T06:31:06;8.23;;;3.15;;
17686;SDS011;8962;52.538;13.266;2022-09-16T06:33:34;9.85;;;4.28;;
17686;SDS011;8962;52.538;13.266;2022-09-16T06:36:03;7.93;;;4.15;;
17686;SDS011;8962;52.538;13.266;2022-09-16T06:38:30;8.65;;;4.40;;
17686;SDS011;8962;52.538;13.266;2022-09-16T06:40:59;9.13;;;3.75;;
17686;SDS011;8962;52.538;13.266;2022-09-16T06:43:26;9.20;;;4.45;;
17686;SDS011;8962;52.538;13.266;2022-09-16T06:45:56;13.70;;;5.95;;
17686;SDS011;8962;52.538;13.266;2022-09-16T06:48:25;11.35;;;4.22;;
17686;SDS011;8962;52.538;13.266;2022-09-16T06:50:57;9.38;;;4.03;;
17686;SDS011;8962;52.538;13.266;2022-09-16T06:53:24;6.18;;;2.95;;
17686;SDS011;8962;52.538;13.266;2022-09-16T06:55:52;13.25;;;4.78;;
17686;SDS011;8962;52.538;13.266;2022-09-16T06:58:19;7.57;;;3.33;;
17686;SDS011;8962;52.538;13.266;2022-09-16T07:00:46;8.55;;;3.03;;
17686;SDS011;8962;52.538;13.266;2022-09-16T07:03:15;6.10;;;3.33;;
17686;SDS011;8962;52.538;13.266;2022-09-16T07:05:53;8.70;;;3.72;;
17686;SDS011;8962;52.538;13.266;2022-09-16T07:08:21;7.47;;;3.67;;
17686;SDS011;8962;52.538;13.266;2022-09-16T07:10:56;6.97;;;3.17;;
17686;SDS011;8962;52.538;13.266;2022-09-16T07:13:24;4.70;;;2.53;;
17686;SDS011;8962;52.538;13.266;2022-09-16T07:15:52;9.00;;;3.15;;
17686;SDS011;8962;52.538;13.266;2022-09-16T07:18:20;4.68;;;2.60;;
17686;SDS011;8962;52.538;13.266;2022-09-16T07:20:50;8.25;;;3.50;;
17686;SDS011;8962;52.538;13.266;2022-09-16T07:23:18;8.07;;;2.90;;
17686;SDS011;8962;52.538;13.266;2022-09-16T07:25:46;4.88;;;2.63;;
17686;SDS011;8962;52.538;13.266;2022-09-16T07:28:13;7.18;;;2.80;;
17686;SDS011;8962;52.538;13.266;2022-09-16T07:30:42;9.45;;;3.10;;
17686;SDS011;8962;52.538;13.266;2022-09-16T07:33:09;10.35;;;2.90;;
17686;SDS011;8962;52.538;13.266;2022-09-16T07:35:36;6.85;;;3.17;;
17686;SDS011;8962;52.538;13.266;2022-09-16T07:38:04;9.43;;;2.80;;
17686;SDS011;8962;52.538;13.266;2022-09-16T07:40:32;4.45;;;2.30;;
17686;SDS011;8962;52.538;13.266;2022-09-16T07:43:04;5.80;;;2.95;;
17686;SDS011;8962;52.538;13.266;2022-09-16T07:45:35;7.78;;;3.03;;
17686;SDS011;8962;52.538;13.266;2022-09-16T07:48:04;11.68;;;3.00;;
17686;SDS011;8962;52.538;13.266;2022-09-16T07:50:31;5.78;;;2.15;;
17686;SDS011;8962;52.538;13.266;2022-09-16T07:52:58;6.13;;;2.10;;
17686;SDS011;8962;52.538;13.266;2022-09-16T07:55:27;7.78;;;2.20;;
17686;SDS011;8962;52.538;13.266;2022-09-16T07:57:54;8.68;;;2.40;;
17686;SDS011;8962;52.538;13.266;2022-09-16T08:00:20;6.57;;;1.88;;
17686;SDS011;8962;52.538;13.266;2022-09-16T08:02:48;4.97;;;1.52;;
17686;SDS011;8962;52.538;13.266;2022-09-16T08:05:15;7.60;;;2.47;;
17686;SDS011;8962;52.538;13.266;2022-09-16T08:07:42;4.35;;;1.80;;
17686;SDS011;8962;52.538;13.266;2022-09-16T08:10:09;5.30;;;1.70;;
17686;SDS011;8962;52.538;13.266;2022-09-16T08:12:41;6.47;;;2.25;;
17686;SDS011;8962;52.538;13.266;2022-09-16T08:15:13;6.03;;;2.25;;
17686;SDS011;8962;52.538;13.266;2022-09-16T08:17:42;9.95;;;2.50;;
17686;SDS011;8962;52.538;13.266;2022-09-16T08:20:11;8.80;;;2.10;;
17686;SDS011;8962;52.538;13.266;2022-09-16T08:22:39;6.55;;;2.28;;
17686;SDS011;8962;52.538;13.266;2022-09-16T08:25:09;8.55;;;1.70;;
17686;SDS011;8962;52.538;13.266;2022-09-16T08:27:37;5.43;;;1.98;;
17686;SDS011;8962;52.538;13.266;2022-09-16T08:30:10;6.95;;;1.92;;
17686;SDS011;8962;52.538;13.266;2022-09-16T08:32:39;4.93;;;1.80;;
17686;SDS011;8962;52.538;13.266;2022-09-16T08:35:06;4.40;;;1.80;;
17686;SDS011;8962;52.538;13.266;2022-09-16T08:37:33;5.53;;;1.58;;
17686;SDS011;8962;52.538;13.266;2022-09-16T08:40:01;7.93;;;1.95;;
17686;SDS011;8962;52.538;13.266;2022-09-16T08:42:30;5.57;;;1.80;;
17686;SDS011;8962;52.538;13.266;2022-09-16T08:45:11;4.85;;;1.90;;
17686;SDS011;8962;52.538;13.266;2022-09-16T08:47:47;7.00;;;2.40;;
17686;SDS011;8962;52.538;13.266;2022-09-16T08:50:33;3.58;;;1.80;;
17686;SDS011;8962;52.538;13.266;2022-09-16T08:53:05;7.35;;;2.13;;
17686;SDS011;8962;52.538;13.266;2022-09-16T08:55:39;4.40;;;1.50;;
17686;SDS011;8962;52.538;13.266;2022-09-16T08:58:12;6.32;;;1.55;;
17686;SDS011;8962;52.538;13.266;2022-09-16T09:00:43;6.82;;;1.73;;
17686;SDS011;8962;52.538;13.266;2022-09-16T09:03:15;4.80;;;1.50;;
17686;SDS011;8962;52.538;13.266;2022-09-16T09:05:51;8.90;;;1.77;;
17686;SDS011;8962;52.538;13.266;2022-09-16T09:08:26;8.50;;;2.00;;
17686;SDS011;8962;52.538;13.266;2022-09-16T09:11:16;6.07;;;1.50;;
17686;SDS011;8962;52.538;13.266;2022-09-16T09:13:53;4.13;;;1.63;;
17686;SDS011;8962;52.538;13.266;2022-09-16T09:16:32;15.00;;;2.15;;
17686;SDS011;8962;52.538;13.266;2022-09-16T09:19:13;7.95;;;1.60;;
17686;SDS011;8962;52.538;13.266;2022-09-16T09:21:52;5.43;;;1.35;;
17686;SDS011;8962;52.538;13.266;2022-09-16T09:24:30;10.70;;;1.85;;
17686;SDS011;8962;52.538;13.266;2022-09-16T09:27:13;7.88;;;1.60;;
17686;SDS011;8962;52.538;13.266;2022-09-16T09:29:49;6.05;;;1.73;;
17686;SDS011;8962;52.538;13.266;2022-09-16T09:32:31;11.25;;;1.90;;
17686;SDS011;8962;52.538;13.266;2022-09-16T09:35:13;8.05;;;2.20;;
17686;SDS011;8962;52.538;13.266;2022-09-16T09:38:03;9.13;;;1.77;;
17686;SDS011;8962;52.538;13.266;2022-09-16T09:40:58;6.78;;;1.55;;
17686;SDS011;8962;52.538;13.266;2022-09-16T09:43:33;8.38;;;1.55;;
17686;SDS011;8962;52.538;13.266;2022-09-16T09:46:07;5.20;;;1.67;;
17686;SDS011;8962;52.538;13.266;2022-09-16T09:48:40;7.53;;;1.90;;
17686;SDS011;8962;52.538;13.266;2022-09-16T09:51:12;6.90;;;1.50;;
17686;SDS011;8962;52.538;13.266;2022-09-16T09:53:48;11.32;;;2.15;;
17686;SDS011;8962;52.538;13.266;2022-09-16T09:56:19;4.80;;;1.33;;
17686;SDS011;8962;52.538;13.266;2022-09-16T09:58:52;6.75;;;2.03;;
17686;SDS011;8962;52.538;13.266;2022-09-16T10:01:24;6.22;;;1.42;;
17686;SDS011;8962;52.538;13.266;2022-09-16T10:03:52;14.75;;;2.50;;
17686;SDS011;8962;52.538;13.266;2022-09-16T10:06:25;8.48;;;2.08;;
17686;SDS011;8962;52.538;13.266;2022-09-16T10:08:58;9.57;;;1.75;;
17686;SDS011;8962;52.538;13.266;2022-09-16T10:11:27;11.85;;;2.20;;
17686;SDS011;8962;52.538;13.266;2022-09-16T10:13:56;8.65;;;2.20;;
17686;SDS011;8962;52.538;13.266;2022-09-16T10:16:25;9.77;;;1.73;;
17686;SDS011;8962;52.538;13.266;2022-09-16T10:18:57;13.23;;;2.10;;
17686;SDS011;8962;52.538;13.266;2022-09-16T10:21:36;6.68;;;1.58;;
17686;SDS011;8962;52.538;13.266;2022-09-16T10:24:20;9.27;;;2.05;;
17686;SDS011;8962;52.538;13.266;2022-09-16T10:26:56;7.82;;;1.33;;
17686;SDS011;8962;52.538;13.266;2022-09-16T10:29:24;9.20;;;2.17;;
17686;SDS011;8962;52.538;13.266;2022-09-16T10:31:51;10.38;;;1.50;;
17686;SDS011;8962;52.538;13.266;2022-09-16T10:34:22;4.07;;;1.30;;
17686;SDS011;8962;52.538;13.266;2022-09-16T10:36:58;6.82;;;1.73;;
17686;SDS011;8962;52.538;13.266;2022-09-16T10:39:27;6.65;;;1.38;;
17686;SDS011;8962;52.538;13.266;2022-09-16T10:41:55;8.95;;;1.60;;
17686;SDS011;8962;52.538;13.266;2022-09-16T10:44:23;6.32;;;1.75;;
17686;SDS011;8962;52.538;13.266;2022-09-16T10:46:55;12.60;;;1.88;;
17686;SDS011;8962;52.538;13.266;2022-09-16T10:49:29;13.07;;;1.98;;
17686;SDS011;8962;52.538;13.266;2022-09-16T10:52:06;5.15;;;1.40;;
17686;SDS011;8962;52.538;13.266;2022-09-16T10:54:38;13.63;;;2.08;;
17686;SDS011;8962;52.538;13.266;2022-09-16T10:57:17;9.02;;;1.73;;
17686;SDS011;8962;52.538;13.266;2022-09-16T11:00:03;9.35;;;1.50;;
17686;SDS011;8962;52.538;13.266;2022-09-16T11:02:51;6.50;;;1.45;;
17686;SDS011;8962;52.538;13.266;2022-09-16T11:05:42;9.80;;;1.50;;
17686;SDS011;8962;52.538;13.266;2022-09-16T11:08:18;5.28;;;1.40;;
17686;SDS011;8962;52.538;13.266;2022-09-16T11:10:55;6.90;;;1.58;;
17686;SDS011;8962;52.538;13.266;2022-09-16T11:13:34;8.57;;;1.73;;
17686;SDS011;8962;52.538;13.266;2022-09-16T11:16:20;4.45;;;1.50;;
17686;SDS011;8962;52.538;13.266;2022-09-16T11:18:56;8.20;;;1.40;;
17686;SDS011;8962;52.538;13.266;2022-09-16T11:21:42;8.07;;;1.67;;
17686;SDS011;8962;52.538;13.266;2022-09-16T11:24:35;4.13;;;1.20;;
17686;SDS011;8962;52.538;13.266;2022-09-16T11:27:18;4.93;;;2.05;;
17686;SDS011;8962;52.538;13.266;2022-09-16T11:29:56;6.03;;;1.52;;
17686;SDS011;8962;52.538;13.266;2022-09-16T11:32:39;7.07;;;1.50;;
17686;SDS011;8962;52.538;13.266;2022-09-16T11:35:25;7.55;;;1.45;;
17686;SDS011;8962;52.538;13.266;2022-09-16T11:38:01;4.68;;;1.20;;
17686;SDS011;8962;52.538;13.266;2022-09-16T11:40:41;8.10;;;1.90;;
17686;SDS011;8962;52.538;13.266;2022-09-16T11:43:19;9.35;;;1.73;;
17686;SDS011;8962;52.538;13.266;2022-09-16T11:46:07;6.13;;;1.10;;
17686;SDS011;8962;52.538;13.266;2022-09-16T11:48:43;5.18;;;1.38;;
17686;SDS011;8962;52.538;13.266;2022-09-16T11:51:23;6.15;;;1.40;;
17686;SDS011;8962;52.538;13.266;2022-09-16T11:54:08;4.70;;;1.67;;
17686;SDS011;8962;52.538;13.266;2022-09-16T11:56:48;5.78;;;2.08;;
17686;SDS011;8962;52.538;13.266;2022-09-16T11:59:19;4.63;;;1.75;;
17686;SDS011;8962;52.538;13.266;2022-09-16T12:01:59;7.85;;;1.60;;
17686;SDS011;8962;52.538;13.266;2022-09-16T12:04:40;4.70;;;1.20;;
17686;SDS011;8962;52.538;13.266;2022-09-16T12:07:11;2.80;;;1.10;;
17686;SDS011;8962;52.538;13.266;2022-09-16T12:09:45;3.95;;;1.13;;
17686;SDS011;8962;52.538;13.266;2022-09-16T12:12:17;6.10;;;1.50;;
17686;SDS011;8962;52.538;13.266;2022-09-16T12:14:47;9.57;;;1.30;;
17686;SDS011;8962;52.538;13.266;2022-09-16T12:17:19;4.30;;;1.33;;
17686;SDS011;8962;52.538;13.266;2022-09-16T12:19:51;4.97;;;1.20;;
17686;SDS011;8962;52.538;13.266;2022-09-16T12:22:24;10.18;;;1.45;;
17686;SDS011;8962;52.538;13.266;2022-09-16T12:24:57;4.22;;;0.98;;
17686;SDS011;8962;52.538;13.266;2022-09-16T12:27:37;5.20;;;1.10;;
17686;SDS011;8962;52.538;13.266;2022-09-16T12:30:13;8.65;;;1.58;;
17686;SDS011;8962;52.538;13.266;2022-09-16T12:32:45;5.25;;;1.30;;
17686;SDS011;8962;52.538;13.266;2022-09-16T12:35:19;6.60;;;1.55;;
17686;SDS011;8962;52.538;13.266;2022-09-16T12:37:50;7.03;;;1.42;;
17686;SDS011;8962;52.538;13.266;2022-09-16T12:40:21;3.90;;;1.00;;
17686;SDS011;8962;52.538;13.266;2022-09-16T12:43:12;5.45;;;1.48;;
17686;SDS011;8962;52.538;13.266;2022-09-16T12:45:53;4.55;;;1.30;;
17686;SDS011;8962;52.538;13.266;2022-09-16T12:48:56;5.18;;;1.23;;
17686;SDS011;8962;52.538;13.266;2022-09-16T12:51:44;4.78;;;1.50;;
17686;SDS011;8962;52.538;13.266;2022-09-16T12:54:32;5.85;;;1.20;;
17686;SDS011;8962;52.538;13.266;2022-09-16T12:57:20;6.20;;;1.58;;
17686;SDS011;8962;52.538;13.266;2022-09-16T13:00:04;4.55;;;1.58;;
17686;SDS011;8962;52.538;13.266;2022-09-16T13:02:42;5.45;;;1.13;;
17686;SDS011;8962;52.538;13.266;2022-09-16T13:05:16;3.65;;;1.38;;
17686;SDS011;8962;52.538;13.266;2022-09-16T13:07:47;4.55;;;1.27;;
17686;SDS011;8962;52.538;13.266;2022-09-16T13:10:18;6.40;;;1.25;;
17686;SDS011;8962;52.538;13.266;2022-09-16T13:12:54;4.53;;;1.25;;
17686;SDS011;8962;52.538;13.266;2022-09-16T13:15:26;3.90;;;1.50;;
17686;SDS011;8962;52.538;13.266;2022-09-16T13:18:06;3.60;;;1.27;;
17686;SDS011;8962;52.538;13.266;2022-09-16T13:20:39;6.10;;;1.17;;
17686;SDS011;8962;52.538;13.266;2022-09-16T13:23:07;5.13;;;1.40;;
17686;SDS011;8962;52.538;13.266;2022-09-16T13:25:43;7.85;;;1.45;;
17686;SDS011;8962;52.538;13.266;2022-09-16T13:28:23;2.90;;;1.10;;
17686;SDS011;8962;52.538;13.266;2022-09-16T13:31:08;5.82;;;1.17;;
17686;SDS011;8962;52.538;13.266;2022-09-16T13:34:01;5.55;;;1.05;;
17686;SDS011;8962;52.538;13.266;2022-09-16T13:36:36;9.98;;;1.50;;
17686;SDS011;8962;52.538;13.266;2022-09-16T13:39:04;6.00;;;1.50;;
17686;SDS011;8962;52.538;13.266;2022-09-16T13:41:36;5.35;;;1.38;;
17686;SDS011;8962;52.538;13.266;2022-09-16T13:47:14;6.25;;;1.35;;
17686;SDS011;8962;52.538;13.266;2022-09-16T13:49:44;6.40;;;1.50;;
17686;SDS011;8962;52.538;13.266;2022-09-16T13:52:16;3.03;;;1.15;;
17686;SDS011;8962;52.538;13.266;2022-09-16T13:54:47;5.88;;;1.45;;
17686;SDS011;8962;52.538;13.266;2022-09-16T13:57:25;4.28;;;1.40;;
17686;SDS011;8962;52.538;13.266;2022-09-16T14:00:12;6.43;;;1.20;;
17686;SDS011;8962;52.538;13.266;2022-09-16T14:02:49;6.47;;;1.17;;
17686;SDS011;8962;52.538;13.266;2022-09-16T14:05:39;4.43;;;1.00;;
17686;SDS011;8962;52.538;13.266;2022-09-16T14:08:31;5.53;;;1.20;;
17686;SDS011;8962;52.538;13.266;2022-09-16T14:11:06;5.00;;;1.15;;
17686;SDS011;8962;52.538;13.266;2022-09-16T14:13:40;5.20;;;1.30;;
17686;SDS011;8962;52.538;13.266;2022-09-16T14:16:15;4.63;;;1.25;;
17686;SDS011;8962;52.538;13.266;2022-09-16T14:18:51;4.80;;;1.20;;
17686;SDS011;8962;52.538;13.266;2022-09-16T14:21:22;8.23;;;1.45;;
17686;SDS011;8962;52.538;13.266;2022-09-16T14:23:49;6.78;;;1.58;;
17686;SDS011;8962;52.538;13.266;2022-09-16T14:26:18;7.95;;;1.30;;
17686;SDS011;8962;52.538;13.266;2022-09-16T14:28:46;8.65;;;1.50;;
17686;SDS011;8962;52.538;13.266;2022-09-16T14:31:17;8.02;;;1.58;;
17686;SDS011;8962;52.538;13.266;2022-09-16T14:33:48;9.02;;;1.40;;
17686;SDS011;8962;52.538;13.266;2022-09-16T14:36:19;6.63;;;1.42;;
17686;SDS011;8962;52.538;13.266;2022-09-16T14:38:52;6.05;;;1.33;;
17686;SDS011;8962;52.538;13.266;2022-09-16T14:41:23;6.72;;;1.20;;
17686;SDS011;8962;52.538;13.266;2022-09-16T14:43:52;7.35;;;1.40;;
17686;SDS011;8962;52.538;13.266;2022-09-16T14:46:25;5.40;;;1.30;;
17686;SDS011;8962;52.538;13.266;2022-09-16T14:48:52;6.55;;;1.45;;
17686;SDS011;8962;52.538;13.266;2022-09-16T14:51:20;11.75;;;1.58;;
17686;SDS011;8962;52.538;13.266;2022-09-16T14:53:53;4.75;;;1.33;;
17686;SDS011;8962;52.538;13.266;2022-09-16T14:56:21;5.43;;;1.27;;
17686;SDS011;8962;52.538;13.266;2022-09-16T14:58:49;5.95;;;1.33;;
17686;SDS011;8962;52.538;13.266;2022-09-16T15:01:18;8.35;;;1.65;;
17686;SDS011;8962;52.538;13.266;2022-09-16T15:03:51;9.73;;;1.35;;
17686;SDS011;8962;52.538;13.266;2022-09-16T15:06:23;4.40;;;1.20;;
17686;SDS011;8962;52.538;13.266;2022-09-16T15:08:53;5.95;;;1.63;;
17686;SDS011;8962;52.538;13.266;2022-09-16T15:11:26;7.00;;;1.42;;
17686;SDS011;8962;52.538;13.266;2022-09-16T15:13:59;4.55;;;1.23;;
17686;SDS011;8962;52.538;13.266;2022-09-16T15:16:26;3.05;;;1.20;;
17686;SDS011;8962;52.538;13.266;2022-09-16T15:18:57;4.40;;;1.30;;
17686;SDS011;8962;52.538;13.266;2022-09-16T15:21:27;4.97;;;1.45;;
17686;SDS011;8962;52.538;13.266;2022-09-16T15:23:57;6.18;;;1.75;;
17686;SDS011;8962;52.538;13.266;2022-09-16T15:26:28;9.18;;;1.63;;
17686;SDS011;8962;52.538;13.266;2022-09-16T15:28:57;4.90;;;1.30;;